createdAt,value
2022-10-21T00:01:25.009Z,96166.50
2022-10-21T00:03:53.261Z,96166.19
2022-10-21T00:06:22.873Z,96076.91
2022-10-21T00:08:51.143Z,96170.19
2022-10-21T00:11:19.373Z,96165.16
2022-10-21T00:13:47.655Z,96157.13
2022-10-21T00:16:18.803Z,96164.47
2022-10-21T00:18:48.996Z,96165.63
2022-10-21T00:21:19.370Z,96162.47
2022-10-21T00:23:50.174Z,96151.00
2022-10-21T00:26:19.506Z,96161.06
2022-10-21T00:28:47.878Z,96167.91
2022-10-21T00:31:17.840Z,96159.44
2022-10-21T00:33:46.124Z,96164.25
2022-10-21T00:36:15.858Z,96161.91
2022-10-21T00:38:45.383Z,96171.53
2022-10-21T00:41:15.995Z,96171.41
2022-10-21T00:44:01.717Z,96174.19
2022-10-21T00:46:36.679Z,96166.38
2022-10-21T00:49:10.044Z,96166.66
2022-10-21T00:51:38.885Z,96172.09
2022-10-21T00:54:08.100Z,96171.00
2022-10-21T00:56:38.827Z,96168.97
2022-10-21T00:59:07.905Z,96166.25
2022-10-21T01:01:36.307Z,96166.56
2022-10-21T01:04:06.007Z,96162.53
2022-10-21T01:06:36.096Z,96160.34
2022-10-21T01:09:06.817Z,96148.13
2022-10-21T01:11:42.600Z,96145.47
2022-10-21T01:14:33.603Z,96152.16
2022-10-21T01:17:20.910Z,96154.38
2022-10-21T01:20:40.329Z,96150.03
2022-10-21T01:23:43.744Z,96148.75
2022-10-21T01:26:51.233Z,96147.69
2022-10-21T01:29:37.204Z,96148.16
2022-10-21T01:32:10.626Z,96156.19
2022-10-21T01:34:45.587Z,96156.00
2022-10-21T01:37:18.819Z,96156.59
2022-10-21T01:39:53.592Z,96160.94
2022-10-21T01:42:30.661Z,96165.47
2022-10-21T01:45:04.316Z,96157.25
2022-10-21T01:47:37.521Z,96163.53
2022-10-21T01:50:11.304Z,96158.53
2022-10-21T01:52:43.061Z,96161.50
2022-10-21T01:55:16.958Z,96161.47
2022-10-21T01:57:50.831Z,96145.38
2022-10-21T02:00:19.678Z,96167.19
2022-10-21T02:02:51.033Z,96152.19
2022-10-21T02:05:21.470Z,96177.88
2022-10-21T02:07:50.595Z,96180.56
2022-10-21T02:10:20.328Z,96181.06
2022-10-21T02:12:52.774Z,96185.13
2022-10-21T02:15:24.664Z,96187.41
2022-10-21T02:17:58.493Z,96188.13
2022-10-21T02:20:30.789Z,96186.03
2022-10-21T02:22:59.629Z,96183.03
2022-10-21T02:25:33.165Z,96168.28
2022-10-21T02:28:01.841Z,96191.44
2022-10-21T02:30:38.705Z,96193.00
2022-10-21T02:33:12.484Z,96190.56
2022-10-21T02:35:47.402Z,96193.84
2022-10-21T02:38:24.116Z,96195.03
2022-10-21T02:40:56.029Z,96194.09
2022-10-21T02:43:29.835Z,96196.59
2022-10-21T02:46:02.179Z,96194.00
2022-10-21T02:48:34.253Z,96196.63
2022-10-21T02:51:03.938Z,96201.38
2022-10-21T02:53:32.520Z,96209.13
2022-10-21T02:56:01.058Z,96202.63
2022-10-21T02:58:29.669Z,96206.91
2022-10-21T03:00:57.950Z,96215.13
2022-10-21T03:03:26.526Z,96210.06
2022-10-21T03:05:56.157Z,96212.50
2022-10-21T03:08:24.525Z,96215.72
2022-10-21T03:10:53.614Z,96220.13
2022-10-21T03:13:22.498Z,96213.22
2022-10-21T03:15:51.250Z,96221.38
2022-10-21T03:18:19.933Z,96220.56
2022-10-21T03:20:50.297Z,96219.00
2022-10-21T03:23:21.048Z,96211.13
2022-10-21T03:25:49.503Z,96223.16
2022-10-21T03:28:17.834Z,96222.88
2022-10-21T03:30:46.095Z,96221.69
2022-10-21T03:33:14.380Z,96212.16
2022-10-21T03:35:42.724Z,96221.38
2022-10-21T03:38:10.932Z,96210.41
2022-10-21T03:40:40.615Z,96189.91
2022-10-21T03:43:08.860Z,96215.53
2022-10-21T03:45:37.121Z,96225.97
2022-10-21T03:48:05.548Z,96223.47
2022-10-21T03:50:33.785Z,96221.94
2022-10-21T03:53:09.969Z,96226.25
2022-10-21T03:55:43.645Z,96214.91
2022-10-21T03:58:11.866Z,96224.44
2022-10-21T04:00:40.133Z,96219.00
2022-10-21T04:03:08.438Z,96227.25
2022-10-21T04:05:36.783Z,96220.97
2022-10-21T04:08:05.123Z,96226.50
2022-10-21T04:10:33.462Z,96227.81
2022-10-21T04:13:03.135Z,96226.72
2022-10-21T04:15:31.408Z,96229.19
2022-10-21T04:17:59.669Z,96232.31
2022-10-21T04:20:27.933Z,96228.16
2022-10-21T04:22:56.269Z,96229.19
2022-10-21T04:25:24.641Z,96239.47
2022-10-21T04:27:52.857Z,96236.69
2022-10-21T04:30:22.628Z,96237.69
2022-10-21T04:32:51.988Z,96208.66
2022-10-21T04:35:20.260Z,96251.72
2022-10-21T04:37:48.572Z,96257.44
2022-10-21T04:40:16.829Z,96251.03
2022-10-21T04:42:49.145Z,96258.72
2022-10-21T04:45:18.209Z,96247.69
2022-10-21T04:47:47.945Z,96267.44
2022-10-21T04:50:16.201Z,96265.28
2022-10-21T04:52:44.514Z,96264.22
2022-10-21T04:55:13.190Z,96266.16
2022-10-21T04:57:41.436Z,96268.69
2022-10-21T05:00:11.163Z,96276.38
2022-10-21T05:02:39.674Z,96255.38
2022-10-21T05:05:10.590Z,96276.38
2022-10-21T05:07:38.856Z,96278.38
2022-10-21T05:10:07.794Z,96272.28
2022-10-21T05:15:10.167Z,96279.97
2022-10-21T05:17:38.500Z,96253.66
2022-10-21T05:20:07.938Z,96279.97
2022-10-21T05:22:38.116Z,96290.94
2022-10-21T05:25:07.244Z,96293.69
2022-10-21T05:27:35.539Z,96290.22
2022-10-21T05:30:04.360Z,96287.47
2022-10-21T05:32:32.530Z,96289.06
2022-10-21T05:35:00.697Z,96293.84
2022-10-21T05:37:28.915Z,96300.22
2022-10-21T05:39:58.615Z,96292.00
2022-10-21T05:42:27.011Z,96239.28
2022-10-21T05:44:55.309Z,96307.63
2022-10-21T05:47:24.153Z,96285.06
2022-10-21T05:49:53.150Z,96307.28
2022-10-21T05:52:21.449Z,96310.88
2022-10-21T05:54:49.809Z,96319.53
2022-10-21T05:57:19.565Z,96314.03
2022-10-21T05:59:47.821Z,96311.84
2022-10-21T06:02:16.180Z,96326.66
2022-10-21T06:04:44.652Z,96322.75
2022-10-21T06:07:12.969Z,96316.59
2022-10-21T06:09:41.266Z,96324.34
2022-10-21T06:12:09.711Z,96324.63
2022-10-21T06:14:39.419Z,96328.13
2022-10-21T06:17:07.708Z,96325.88
2022-10-21T06:19:35.964Z,96331.06
2022-10-21T06:22:04.283Z,96264.25
2022-10-21T06:24:33.205Z,96326.63
2022-10-21T06:27:01.495Z,96324.09
2022-10-21T06:29:29.912Z,96324.38
2022-10-21T06:32:00.047Z,96335.31
2022-10-21T06:34:28.312Z,96335.13
2022-10-21T06:36:56.597Z,96320.88
2022-10-21T06:39:25.171Z,96333.75
2022-10-21T06:41:53.532Z,96277.94
2022-10-21T06:44:21.925Z,96315.53
2022-10-21T06:46:50.248Z,96326.72
2022-10-21T06:49:20.085Z,96320.50
2022-10-21T06:51:48.324Z,96322.13
2022-10-21T06:54:16.673Z,96316.75
2022-10-21T06:56:44.924Z,96321.81
2022-10-21T06:59:13.205Z,96320.75
2022-10-21T07:01:58.761Z,96304.44
2022-10-21T07:04:29.822Z,96312.06
2022-10-21T07:06:58.322Z,96314.47
2022-10-21T07:09:26.692Z,96317.19
2022-10-21T07:11:55.021Z,96310.09
2022-10-21T07:14:24.054Z,96316.56
2022-10-21T07:16:53.537Z,96312.47
2022-10-21T07:19:21.779Z,96311.88
2022-10-21T07:21:52.169Z,96304.56
2022-10-21T07:24:22.700Z,96315.09
2022-10-21T07:29:37.364Z,96303.53
2022-10-21T07:32:05.644Z,96298.94
2022-10-21T07:34:33.932Z,96294.03
2022-10-21T07:37:03.636Z,96302.94
2022-10-21T07:39:32.700Z,96297.91
2022-10-21T07:42:01.005Z,96286.06
2022-10-21T07:44:29.194Z,96296.25
2022-10-21T07:46:57.560Z,96294.03
2022-10-21T07:49:28.857Z,96216.84
2022-10-21T07:51:57.776Z,96298.53
2022-10-21T07:54:27.467Z,96295.13
2022-10-21T07:56:55.791Z,96294.78
2022-10-21T07:59:24.504Z,96177.31
2022-10-21T08:01:53.461Z,96277.16
2022-10-21T08:04:25.007Z,96287.66
2022-10-21T08:06:53.604Z,96292.94
2022-10-21T08:09:21.912Z,96284.22
2022-10-21T08:11:51.697Z,96290.34
2022-10-21T08:14:19.966Z,96283.25
2022-10-21T08:16:52.781Z,96217.81
2022-10-21T08:19:25.392Z,96283.88
2022-10-21T08:21:54.631Z,96281.06
2022-10-21T08:24:23.618Z,96277.97
2022-10-21T08:26:53.386Z,96269.09
2022-10-21T08:29:21.731Z,96242.72
2022-10-21T08:31:49.959Z,96274.94
2022-10-21T08:34:18.423Z,96277.94
2022-10-21T08:36:46.751Z,96269.25
2022-10-21T08:39:15.128Z,96269.41
2022-10-21T08:42:07.740Z,96263.47
2022-10-21T08:44:48.103Z,96277.22
2022-10-21T08:47:26.178Z,96272.25
2022-10-21T08:50:01.685Z,96250.09
2022-10-21T08:52:40.590Z,96267.78
2022-10-21T08:55:16.223Z,96262.44
2022-10-21T08:57:46.841Z,96264.59
2022-10-21T09:00:20.650Z,96216.28
2022-10-21T09:03:02.962Z,96256.63
2022-10-21T09:06:04.749Z,96248.00
2022-10-21T09:08:39.492Z,96251.72
2022-10-21T09:11:21.107Z,96255.59
2022-10-21T09:14:06.370Z,96248.47
2022-10-21T09:16:44.081Z,96241.63
2022-10-21T09:19:20.550Z,96245.47
2022-10-21T09:22:33.148Z,96241.16
2022-10-21T09:25:00.639Z,96234.66
2022-10-21T09:27:44.074Z,96233.22
2022-10-21T09:33:17.327Z,96208.56
2022-10-21T09:35:49.447Z,96209.00
2022-10-21T09:38:23.196Z,96206.09
2022-10-21T09:40:59.213Z,96209.44
2022-10-21T09:43:28.604Z,96206.75
2022-10-21T09:45:59.254Z,96205.81
2022-10-21T09:48:41.753Z,96207.50
2022-10-21T09:51:23.649Z,96199.13
2022-10-21T09:53:55.362Z,96205.78
2022-10-21T09:56:26.497Z,96195.81
2022-10-21T09:59:07.833Z,96195.88
2022-10-21T10:01:39.325Z,96178.50
2022-10-21T10:04:15.212Z,96194.09
2022-10-21T10:06:45.273Z,96186.22
2022-10-21T10:09:18.785Z,96173.75
2022-10-21T10:11:53.697Z,96172.94
2022-10-21T10:14:33.511Z,96177.59
2022-10-21T10:17:29.040Z,96157.16
2022-10-21T10:20:16.171Z,96171.97
2022-10-21T10:22:45.873Z,96157.03
2022-10-21T10:25:24.372Z,96151.59
2022-10-21T10:27:54.851Z,96141.00
2022-10-21T10:30:24.661Z,96136.31
2022-10-21T10:32:56.313Z,96131.69
2022-10-21T10:35:31.410Z,96129.72
2022-10-21T10:38:02.639Z,96126.50
2022-10-21T10:40:34.257Z,96116.75
2022-10-21T10:43:07.749Z,96114.34
2022-10-21T10:45:36.612Z,96108.19
2022-10-21T10:48:07.965Z,96100.78
2022-10-21T10:50:46.990Z,96092.34
2022-10-21T10:53:31.515Z,96093.34
2022-10-21T10:56:14.283Z,96089.63
2022-10-21T10:58:48.642Z,96078.22
2022-10-21T11:01:26.356Z,96089.03
2022-10-21T11:04:02.362Z,96089.50
2022-10-21T11:06:38.012Z,96088.06
2022-10-21T11:09:09.176Z,96077.03
2022-10-21T11:11:41.494Z,96075.69
2022-10-21T11:14:17.667Z,96077.50
2022-10-21T11:17:02.197Z,96066.88
2022-10-21T11:19:41.911Z,96068.56
2022-10-21T11:22:28.095Z,96053.09
2022-10-21T11:24:59.820Z,96060.75
2022-10-21T11:27:48.788Z,96054.84
2022-10-21T11:30:20.916Z,96058.13
2022-10-21T11:33:08.640Z,96061.44
2022-10-21T11:35:55.512Z,96050.00
2022-10-21T11:38:38.424Z,96035.50
2022-10-21T11:41:24.163Z,96032.47
2022-10-21T11:44:08.119Z,96039.81
2022-10-21T11:46:45.209Z,96037.34
2022-10-21T11:49:28.405Z,96030.25
2022-10-21T11:52:09.464Z,96031.03
2022-10-21T11:55:10.999Z,96023.28
2022-10-21T11:57:47.299Z,96003.75
2022-10-21T12:00:20.082Z,96017.78
2022-10-21T12:03:01.145Z,96003.56
2022-10-21T12:05:33.204Z,96001.19
2022-10-21T12:08:12.139Z,96010.22
2022-10-21T12:10:46.998Z,95995.59
2022-10-21T12:13:20.908Z,95996.13
2022-10-21T12:15:52.741Z,95994.03
2022-10-21T12:18:23.339Z,95993.50
2022-10-21T12:20:54.671Z,95989.41
2022-10-21T12:23:28.986Z,95990.47
2022-10-21T12:26:22.821Z,95970.94
2022-10-21T12:28:58.579Z,95967.13
2022-10-21T12:31:39.358Z,95979.94
2022-10-21T12:34:10.884Z,95971.84
2022-10-21T12:36:42.290Z,95970.94
2022-10-21T12:39:19.416Z,95951.81
2022-10-21T12:41:49.027Z,95961.25
2022-10-21T12:44:29.137Z,95952.25
2022-10-21T12:47:02.363Z,95964.41
2022-10-21T12:49:33.704Z,95964.97
2022-10-21T12:52:10.500Z,95961.34
2022-10-21T12:54:52.165Z,95964.84
2022-10-21T12:57:27.917Z,95960.28
2022-10-21T13:00:38.093Z,95962.69
2022-10-21T13:03:10.656Z,95955.19
2022-10-21T13:06:05.189Z,95964.25
2022-10-21T13:08:41.782Z,95952.09
2022-10-21T13:11:37.953Z,95949.94
2022-10-21T13:14:35.405Z,95951.75
2022-10-21T13:17:31.502Z,95949.75
2022-10-21T13:20:47.447Z,95951.31
2022-10-21T13:23:47.787Z,95954.94
2022-10-21T13:26:30.285Z,95953.31
2022-10-21T13:29:06.854Z,95951.16
2022-10-21T13:31:35.687Z,95943.81
2022-10-21T13:34:04.604Z,95948.00
2022-10-21T13:36:43.323Z,95954.00
2022-10-21T13:39:26.968Z,95952.66
2022-10-21T13:42:05.794Z,95950.78
2022-10-21T13:44:38.355Z,95953.03
2022-10-21T13:47:37.597Z,95957.09
2022-10-21T13:50:14.557Z,95954.50
2022-10-21T13:52:44.853Z,95934.28
2022-10-21T13:55:20.873Z,95955.91
2022-10-21T13:57:52.740Z,95957.03
2022-10-21T14:00:24.372Z,95957.97
2022-10-21T14:02:54.772Z,95944.09
2022-10-21T14:05:34.570Z,95948.22
2022-10-21T14:08:03.907Z,95952.59
2022-10-21T14:10:32.920Z,95959.38
2022-10-21T14:13:02.984Z,95957.94
2022-10-21T14:15:40.888Z,95956.47
2022-10-21T14:18:09.343Z,95960.19
2022-10-21T14:20:39.221Z,95965.56
2022-10-21T14:23:09.823Z,95960.72
2022-10-21T14:25:38.704Z,95967.94
2022-10-21T14:28:08.389Z,95960.03
2022-10-21T14:30:38.079Z,95968.44
2022-10-21T14:33:08.587Z,95960.31
2022-10-21T14:35:36.800Z,95966.19
2022-10-21T14:38:25.482Z,95961.22
2022-10-21T14:41:00.052Z,95968.78
2022-10-21T14:43:34.842Z,95967.34
2022-10-21T14:46:06.358Z,95970.50
2022-10-21T14:48:37.153Z,95949.13
2022-10-21T14:51:09.834Z,95963.63
2022-10-21T14:53:45.917Z,95973.03
2022-10-21T14:56:19.253Z,95931.38
2022-10-21T14:58:53.821Z,95973.81
2022-10-21T15:01:23.344Z,95983.56
2022-10-21T15:03:53.447Z,95995.91
2022-10-21T15:06:24.088Z,95980.00
2022-10-21T15:09:18.928Z,95985.97
2022-10-21T15:11:48.321Z,95989.16
2022-10-21T15:14:28.783Z,95994.84
2022-10-21T15:16:58.599Z,95990.00
2022-10-21T15:19:29.616Z,95936.00
2022-10-21T15:22:01.093Z,96005.25
2022-10-21T15:24:43.243Z,96007.97
2022-10-21T15:27:17.952Z,96000.66
2022-10-21T15:29:49.527Z,95946.00
2022-10-21T15:32:22.746Z,96014.56
2022-10-21T15:34:53.896Z,96009.19
2022-10-21T15:37:22.590Z,96013.75
2022-10-21T15:39:51.097Z,96014.81
2022-10-21T15:42:20.427Z,96013.38
2022-10-21T15:44:51.440Z,96022.44
2022-10-21T15:47:20.812Z,96018.50
2022-10-21T15:49:49.453Z,95997.44
2022-10-21T15:52:18.121Z,96023.03
2022-10-21T15:54:46.409Z,96020.44
2022-10-21T15:57:24.731Z,96029.56
2022-10-21T15:59:57.891Z,96033.97
2022-10-21T16:02:26.268Z,96040.38
2022-10-21T16:04:55.005Z,96041.56
2022-10-21T16:07:29.437Z,96042.66
2022-10-21T16:09:58.794Z,96039.00
2022-10-21T16:12:27.096Z,96055.69
2022-10-21T16:14:56.847Z,96067.53
2022-10-21T16:17:28.622Z,96075.25
2022-10-21T16:19:57.020Z,96077.31
2022-10-21T16:22:25.581Z,96072.41
2022-10-21T16:24:53.781Z,96081.91
2022-10-21T16:27:43.010Z,96077.13
2022-10-21T16:30:16.849Z,96060.34
2022-10-21T16:32:45.876Z,96083.97
2022-10-21T16:35:15.474Z,96082.19
2022-10-21T16:37:44.843Z,96090.03
2022-10-21T16:40:22.476Z,96093.50
2022-10-21T16:42:52.360Z,96090.94
2022-10-21T16:45:27.725Z,96084.31
2022-10-21T16:47:58.057Z,96101.50
2022-10-21T16:50:35.096Z,96081.97
2022-10-21T16:53:08.632Z,96114.09
2022-10-21T16:55:37.495Z,96122.22
2022-10-21T16:58:05.751Z,96112.72
2022-10-21T17:00:37.139Z,96136.25
2022-10-21T17:03:06.376Z,96129.47
2022-10-21T17:08:17.001Z,96142.66
2022-10-21T17:10:45.276Z,96111.81
2022-10-21T17:13:14.339Z,96054.63
2022-10-21T17:15:44.931Z,96156.59
2022-10-21T17:18:15.595Z,96156.75
2022-10-21T17:20:44.569Z,96148.31
2022-10-21T17:23:13.161Z,96150.06
2022-10-21T17:25:41.654Z,96154.03
2022-10-21T17:28:09.998Z,96157.31
2022-10-21T17:30:38.342Z,96157.28
2022-10-21T17:33:10.617Z,96142.88
2022-10-21T17:35:42.156Z,96158.78
2022-10-21T17:38:10.562Z,96164.13
2022-10-21T17:40:38.929Z,96174.66
2022-10-21T17:43:07.213Z,96173.09
2022-10-21T17:45:35.496Z,96178.03
2022-10-21T17:48:03.809Z,96173.50
2022-10-21T17:50:33.757Z,96180.63
2022-10-21T17:53:02.010Z,96188.44
2022-10-21T17:55:30.471Z,96184.47
2022-10-21T17:57:58.958Z,96195.66
2022-10-21T18:00:27.276Z,96189.28
2022-10-21T18:02:56.011Z,96184.25
2022-10-21T18:05:24.309Z,96199.09
2022-10-21T18:07:53.981Z,96205.81
2022-10-21T18:10:22.191Z,96202.59
2022-10-21T18:12:50.481Z,96195.13
2022-10-21T18:15:19.562Z,96206.00
2022-10-21T18:17:47.973Z,96209.19
2022-10-21T18:20:17.245Z,96200.13
2022-10-21T18:22:45.527Z,96213.81
2022-10-21T18:25:15.540Z,96218.81
2022-10-21T18:30:17.050Z,96221.28
2022-10-21T18:32:45.304Z,96219.06
2022-10-21T18:35:15.079Z,96218.50
2022-10-21T18:37:43.565Z,96229.28
2022-10-21T18:40:12.550Z,96221.25
2022-10-21T18:42:42.162Z,96224.34
2022-10-21T18:45:11.624Z,96221.22
2022-10-21T18:47:40.946Z,96236.63
2022-10-21T18:50:11.159Z,96237.28
2022-10-21T18:52:39.392Z,96234.56
2022-10-21T18:55:08.101Z,96252.41
2022-10-21T18:57:36.436Z,96233.78
2022-10-21T19:00:24.560Z,96231.13
2022-10-21T19:02:53.136Z,96238.59
2022-10-21T19:05:21.405Z,96226.84
2022-10-21T19:07:49.743Z,96233.25
2022-10-21T19:10:18.487Z,96252.44
2022-10-21T19:12:47.079Z,96248.72
2022-10-21T19:15:15.346Z,96246.81
2022-10-21T19:17:44.961Z,96228.94
2022-10-21T19:20:14.741Z,96252.16
2022-10-21T19:22:43.033Z,96249.78
2022-10-21T19:25:11.487Z,96252.19
2022-10-21T19:27:40.073Z,96256.16
2022-10-21T19:30:09.725Z,96255.13
2022-10-21T19:32:38.318Z,96255.13
2022-10-21T19:35:09.011Z,96258.53
2022-10-21T19:37:37.250Z,96263.06
2022-10-21T19:40:06.430Z,96267.59
2022-10-21T19:42:35.098Z,96242.25
2022-10-21T19:45:03.434Z,96268.69
2022-10-21T19:47:31.696Z,96275.38
2022-10-21T19:50:00.125Z,96275.38
2022-10-21T19:52:29.879Z,96278.03
2022-10-21T19:54:58.184Z,96278.84
2022-10-21T19:57:26.515Z,96278.81
2022-10-21T19:59:54.753Z,96269.81
2022-10-21T20:02:22.963Z,96288.97
2022-10-21T20:04:51.251Z,96294.97
2022-10-21T20:07:19.458Z,96287.03
2022-10-21T20:09:49.109Z,96291.22
2022-10-21T20:12:17.379Z,96291.03
2022-10-21T20:14:45.698Z,96285.06
2022-10-21T20:17:16.127Z,96291.63
2022-10-21T20:19:48.605Z,96287.66
2022-10-21T20:22:17.020Z,96282.84
2022-10-21T20:24:46.334Z,96283.91
2022-10-21T20:27:16.456Z,96282.84
2022-10-21T20:29:44.700Z,96279.38
2022-10-21T20:32:13.022Z,96274.84
2022-10-21T20:34:43.208Z,96282.03
2022-10-21T20:37:11.569Z,96275.66
2022-10-21T20:39:40.706Z,96288.19
2022-10-21T20:42:08.929Z,96284.72
2022-10-21T20:44:38.883Z,96292.19
2022-10-21T20:47:07.199Z,96295.63
2022-10-21T20:49:35.413Z,96287.31
2022-10-21T20:52:03.690Z,96295.28
2022-10-21T20:54:33.495Z,96290.50
2022-10-21T20:57:01.688Z,96290.78
2022-10-21T20:59:29.969Z,96286.59
2022-10-21T21:01:59.642Z,96283.00
2022-10-21T21:04:27.844Z,96284.91
2022-10-21T21:06:56.199Z,96283.63
2022-10-21T21:12:14.168Z,96285.75
2022-10-21T21:14:42.349Z,96287.91
2022-10-21T21:17:11.940Z,96287.38
2022-10-21T21:19:40.468Z,96290.84
2022-10-21T21:22:09.104Z,96291.38
2022-10-21T21:24:37.273Z,96294.84
2022-10-21T21:27:05.697Z,96279.06
2022-10-21T21:29:34.064Z,96294.00
2022-10-21T21:32:02.355Z,96300.09
2022-10-21T21:34:32.180Z,96297.41
2022-10-21T21:37:00.946Z,96297.38
2022-10-21T21:39:29.315Z,96284.84
2022-10-21T21:41:57.730Z,96285.66
2022-10-21T21:44:26.016Z,96284.50
2022-10-21T21:46:54.277Z,96293.75
2022-10-21T21:49:22.653Z,96284.97
2022-10-21T21:51:52.349Z,96290.56
2022-10-21T21:54:20.613Z,96287.81
2022-10-21T21:56:50.184Z,96283.88
2022-10-21T21:59:20.279Z,96270.47
2022-10-21T22:01:48.610Z,96280.63
2022-10-21T22:04:16.901Z,96285.66
2022-10-21T22:06:45.085Z,96292.63
2022-10-21T22:09:14.817Z,96282.03
2022-10-21T22:11:43.128Z,96282.25
2022-10-21T22:14:11.360Z,96287.63
2022-10-21T22:16:40.149Z,96277.28
2022-10-21T22:19:08.454Z,96275.63
2022-10-21T22:21:36.709Z,96283.47
2022-10-21T22:24:05.998Z,96277.13
2022-10-21T22:26:35.681Z,96273.13
2022-10-21T22:29:03.865Z,96272.91
2022-10-21T22:31:32.062Z,96281.16
2022-10-21T22:34:02.143Z,96284.09
2022-10-21T22:36:30.907Z,96269.81
2022-10-21T22:38:59.426Z,96191.91
2022-10-21T22:41:27.725Z,96274.09
2022-10-21T22:43:57.315Z,96273.84
2022-10-21T22:46:40.941Z,96266.00
2022-10-21T22:49:11.272Z,96265.81
2022-10-21T22:51:39.554Z,96269.56
2022-10-21T22:54:19.288Z,95997.72
2022-10-21T22:56:52.611Z,96276.47
2022-10-21T22:59:22.560Z,96270.34
2022-10-21T23:01:50.823Z,96278.56
2022-10-21T23:04:19.116Z,96287.22
2022-10-21T23:06:47.392Z,96292.97
2022-10-21T23:09:15.720Z,96300.75
2022-10-21T23:11:44.362Z,96288.38
2022-10-21T23:14:12.593Z,96298.34
2022-10-21T23:16:42.482Z,96303.53
2022-10-21T23:21:42.457Z,96309.72
2022-10-21T23:24:10.812Z,96306.94
2022-10-21T23:26:39.165Z,96297.38
2022-10-21T23:29:07.416Z,96292.84
2022-10-21T23:31:35.813Z,96295.41
2022-10-21T23:34:06.123Z,96293.25
2022-10-21T23:36:35.656Z,96240.09
2022-10-21T23:39:04.801Z,96295.16
2022-10-21T23:41:35.036Z,96290.91
2022-10-21T23:44:03.328Z,96289.44
2022-10-21T23:46:31.594Z,96276.09
2022-10-21T23:48:59.933Z,96259.91
2022-10-21T23:51:29.670Z,96278.88
2022-10-21T23:53:57.953Z,96283.63
2022-10-21T23:56:26.280Z,96284.44
2022-10-21T23:58:54.510Z,96279.25
